ADDS METAR Data

Data at: 2045 UTC 15 Aug 2018

METAR for:KATL (Atlanta/Hartsfield-J, GA, US)
Text:KATL 151952Z 33005KT 10SM FEW060 SCT150 SCT250 33/17 A3009 RMK AO2 SLP177 T03330172
Temperature: 33.3°C ( 92°F)
Dewpoint: 17.2°C ( 63°F) [RH = 38%]
Pressure (altimeter):30.09 inches Hg (1019.0 mb) [Sea level pressure: 1017.7 mb]
Winds:from the NNW (330 degrees) at 6 MPH (5 knots; 2.6 m/s)
Visibility:10 or more sm (16+ km)
Ceiling:at least 12,000 feet AGL
Clouds: few clouds at 6000 feet AGL, scattered clouds at 15000 feet AGL, scattered clouds at 25000 feet AGL